Time;durP1;ratioP1;P1;durP2;ratioP2;P2;SDS_P1;SDS_P2;PMS_P1;PMS_P2;Temp;Humidity;BMP_temperature;BMP_pressure;BME280_temperature;BME280_humidity;BME280_pressure;Samples;Min_cycle;Max_cycle;Signal;HPM_P1;HPM_P2
2021/04/12 00:00:21;;;;;;;41.60;27.30;;;;;;;6.09;57.74;101501.48;1748871;81;21153;-39
2021/04/12 00:03:02;;;;;;;37.73;25.52;;;;;;;6.05;57.82;101502.02;1757731;81;21148;-38
2021/04/12 00:05:44;;;;;;;38.70;26.05;;;;;;;6.03;58.01;101504.28;1749414;80;21169;-38
2021/04/12 00:08:37;;;;;;;34.23;24.50;;;;;;;5.99;58.13;101510.09;1670913;84;21181;-37
2021/04/12 00:13:57;;;;;;;37.20;25.62;;;;;;;5.96;58.10;101500.03;1805621;77;23206;-37
2021/04/12 00:16:38;;;;;;;37.60;25.10;;;;;;;5.89;58.17;101499.72;1755631;80;21113;-38
2021/04/12 00:19:14;;;;;;;;;;;;;;;5.85;58.14;101501.12;1778898;79;21137;-38
2021/04/12 00:22:16;;;;;;;35.13;23.83;;;;;;;5.83;58.20;101499.41;1777235;80;20696;-38
2021/04/12 00:24:56;;;;;;;31.35;22.80;;;;;;;5.78;58.15;101496.00;1693359;83;21173;-39
2021/04/12 00:27:41;;;;;;;35.73;26.17;;;;;;;5.73;58.32;101498.75;1689161;83;21157;-38
2021/04/12 00:30:52;;;;;;;34.78;23.90;;;;;;;5.71;58.56;101499.22;1695597;83;21524;-38
2021/04/12 00:33:36;;;;;;;35.00;24.05;;;;;;;5.68;58.69;101498.44;1675550;84;21173;-37
2021/04/12 00:36:22;;;;;;;38.65;24.18;;;;;;;5.64;58.81;101494.97;1676726;83;21156;-38
2021/04/12 00:39:21;;;;;;;35.65;24.27;;;;;;;5.64;58.76;101491.00;1794778;78;22899;-39
2021/04/12 00:42:24;;;;;;;37.55;25.92;;;;;;;5.58;58.73;101488.50;1727280;81;21166;-38
2021/04/12 00:45:58;;;;;;;36.85;24.67;;;;;;;5.55;58.93;101481.96;1803958;78;23443;-38
2021/04/12 00:49:02;;;;;;;38.48;25.52;;;;;;;5.49;58.90;101478.97;1729238;81;21182;-38
2021/04/12 00:51:59;;;;;;;37.70;26.40;;;;;;;5.45;59.06;101491.00;1727667;81;21198;-36
2021/04/12 00:54:49;;;;;;;37.93;24.95;;;;;;;5.40;59.10;101487.98;1714590;81;21177;-37
2021/04/12 00:57:50;;;;;;;35.73;25.02;;;;;;;5.36;59.04;101480.14;1698064;82;21216;-37
2021/04/12 01:00:29;;;;;;;41.77;27.85;;;;;;;5.33;59.05;101474.47;1709408;82;21148;-37
2021/04/12 01:03:14;;;;;;;32.93;25.10;;;;;;;5.30;58.93;101475.00;1687574;82;21169;-39
2021/04/12 01:06:19;;;;;;;38.50;26.70;;;;;;;5.28;59.03;101474.16;1712249;82;21196;-36
2021/04/12 01:09:20;;;;;;;40.20;25.77;;;;;;;5.27;59.11;101477.71;1711466;82;21637;-38
2021/04/12 01:12:31;;;;;;;36.55;25.80;;;;;;;5.25;59.19;101476.87;1695584;83;21118;-37
2021/04/12 01:15:04;;;;;;;34.43;25.85;;;;;;;5.21;59.47;101465.46;1682121;83;21210;-38
2021/04/12 01:17:50;;;;;;;35.20;26.10;;;;;;;5.16;59.21;101458.94;1695844;83;21185;-37
2021/04/12 01:20:54;;;;;;;38.17;26.87;;;;;;;5.11;59.01;101472.70;1678650;84;21185;-38
2021/04/12 01:23:47;;;;;;;38.90;26.90;;;;;;;5.08;59.28;101470.13;1700462;82;21578;-38
2021/04/12 01:26:43;;;;;;;35.78;25.85;;;;;;;5.07;59.33;101466.22;1705891;82;21150;-39
2021/04/12 01:29:49;;;;;;;35.20;25.60;;;;;;;5.03;59.40;101459.23;1704558;83;22024;-39
2021/04/12 01:32:47;;;;;;;35.40;26.70;;;;;;;4.98;59.46;101454.90;1709795;81;21596;-39
2021/04/12 01:35:23;;;;;;;33.00;25.52;;;;;;;4.96;59.63;101447.91;1702456;82;21170;-38
2021/04/12 01:38:21;;;;;;;32.75;23.38;;;;;;;4.94;59.57;101448.41;1695574;82;21191;-39
2021/04/12 01:41:07;;;;;;;34.78;24.52;;;;;;;4.90;59.62;101440.97;1702778;82;21157;-38
2021/04/12 01:44:28;;;;;;;33.28;24.70;;;;;;;4.86;59.80;101441.92;1708023;83;21157;-36
2021/04/12 01:47:42;;;;;;;35.10;24.75;;;;;;;4.82;59.69;101440.26;1702327;82;21161;-39
2021/04/12 01:50:24;;;;;;;34.70;23.30;;;;;;;4.78;59.88;101431.95;1698609;82;21606;-38
2021/04/12 01:53:26;;;;;;;31.70;22.90;;;;;;;4.75;59.99;101432.89;1683588;83;21174;-38
2021/04/12 01:56:49;;;;;;;41.75;26.15;;;;;;;4.71;60.13;101432.55;1684613;82;21177;-41
2021/04/12 01:59:40;;;;;;;32.75;23.60;;;;;;;4.68;60.24;101435.22;1697934;82;21175;-37
2021/04/12 02:02:31;;;;;;;35.17;24.72;;;;;;;4.58;60.31;101431.02;1685986;83;21191;-39
2021/04/12 02:05:21;;;;;;;35.55;24.65;;;;;;;4.52;60.48;101427.18;1686128;83;21632;-37
2021/04/12 02:08:21;;;;;;;36.35;23.50;;;;;;;4.51;60.92;101430.28;1680251;83;21197;-37
2021/04/12 02:11:23;;;;;;;34.25;23.52;;;;;;;4.51;61.06;101430.28;1704761;82;21186;-37
2021/04/12 02:14:13;;;;;;;29.35;22.70;;;;;;;4.51;61.21;101429.38;1687470;83;21554;-38
2021/04/12 02:17:06;;;;;;;36.60;26.40;;;;;;;4.52;61.46;101427.18;1667739;83;21213;-37
2021/04/12 02:19:40;;;;;;;34.55;24.35;;;;;;;4.53;61.42;101420.52;1676675;84;21711;-38
2021/04/12 02:22:36;;;;;;;35.63;25.02;;;;;;;4.53;61.26;101418.34;1677183;84;21185;-40
2021/04/12 02:25:33;;;;;;;34.83;23.22;;;;;;;4.53;61.30;101411.28;1675743;83;21161;-38
2021/04/12 02:28:39;;;;;;;35.05;23.60;;;;;;;4.53;61.23;101408.64;1682835;83;21203;-36
2021/04/12 02:31:21;;;;;;;32.05;23.27;;;;;;;4.53;61.33;101408.64;1680535;83;21181;-37
2021/04/12 02:34:11;;;;;;;34.63;25.20;;;;;;;4.53;61.50;101407.77;1688154;83;21172;-37
2021/04/12 02:36:46;;;;;;;33.80;24.02;;;;;;;4.53;61.61;101406.00;1679431;83;21153;-37
2021/04/12 02:39:46;;;;;;;34.48;24.57;;;;;;;4.55;61.80;101408.62;1685158;83;21704;-40
2021/04/12 02:42:40;;;;;;;31.42;22.27;;;;;;;4.57;61.94;101408.61;1668540;83;21204;-39
2021/04/12 02:45:34;;;;;;;35.03;25.15;;;;;;;4.59;62.09;101405.49;1667075;84;21994;-37
2021/04/12 02:48:38;;;;;;;32.23;24.07;;;;;;;4.57;62.07;101408.15;1676337;83;21201;-39
2021/04/12 02:51:17;;;;;;;34.40;24.37;;;;;;;4.57;62.15;101405.51;1649120;84;21613;-37
2021/04/12 02:54:08;;;;;;;33.45;23.90;;;;;;;4.58;62.03;101401.95;1692411;82;21185;-37
2021/04/12 02:57:02;;;;;;;34.83;23.85;;;;;;;4.58;61.81;101400.63;1700198;83;21156;-37
2021/04/12 03:00:06;;;;;;;35.50;24.92;;;;;;;4.57;61.60;101400.22;1696008;82;21151;-39
2021/04/12 03:02:54;;;;;;;36.48;24.27;;;;;;;4.59;61.68;101397.56;1696303;82;21117;-38
2021/04/12 03:06:03;;;;;;;36.70;25.50;;;;;;;4.60;61.81;101395.33;1705288;83;21176;-38
2021/04/12 03:08:53;;;;;;;34.58;25.15;;;;;;;4.59;61.87;101394.47;1671301;84;21168;-38
2021/04/12 03:12:03;;;;;;;36.50;24.87;;;;;;;4.60;61.97;101394.01;1671088;83;21206;-45
2021/04/12 03:14:45;;;;;;;33.90;26.05;;;;;;;4.58;62.04;101399.77;1676848;83;21172;-38
2021/04/12 03:18:07;;;;;;;36.03;26.55;;;;;;;4.56;62.14;101391.86;1678326;83;21623;-41
2021/04/12 03:20:55;;;;;;;32.95;25.10;;;;;;;4.55;62.19;101388.34;1682655;83;21768;-37
2021/04/12 03:23:47;;;;;;;32.05;24.27;;;;;;;4.57;62.17;101391.44;1684043;83;21169;-39
2021/04/12 03:26:43;;;;;;;39.78;27.55;;;;;;;4.55;62.22;101389.67;1715697;81;22012;-36
2021/04/12 03:29:31;;;;;;;34.10;26.65;;;;;;;4.58;62.08;101386.55;1646447;84;21155;-36
2021/04/12 03:32:35;;;;;;;40.67;28.40;;;;;;;4.60;62.00;101384.77;1603722;87;21236;-36
2021/04/12 03:35:11;;;;;;;37.73;26.65;;;;;;;4.61;62.07;101378.14;1606079;87;21191;-36
2021/04/12 03:38:08;;;;;;;37.93;26.68;;;;;;;4.60;62.09;101375.52;1604426;87;21278;-36
2021/04/12 03:40:42;;;;;;;34.75;27.22;;;;;;;4.59;62.10;101370.69;1610366;87;21232;-39
2021/04/12 03:43:55;;;;;;;37.67;26.75;;;;;;;4.64;62.17;101367.96;1767225;79;22917;-44
2021/04/12 03:47:18;;;;;;;37.55;27.77;;;;;;;4.61;62.22;101366.67;1739639;82;21137;-39
2021/04/12 03:50:11;;;;;;;45.45;32.08;;;;;;;4.65;62.47;101365.73;1738262;81;21195;-38
2021/04/12 03:53:17;;;;;;;37.13;27.90;;;;;;;4.66;62.80;101364.39;1729193;82;21158;-39
2021/04/12 03:56:33;;;;;;;36.28;26.85;;;;;;;4.69;62.92;101363.00;1739798;81;21130;-39
2021/04/12 03:59:31;;;;;;;36.35;26.90;;;;;;;4.70;62.93;101366.50;1731702;80;21169;-39
2021/04/12 04:02:40;;;;;;;34.53;26.10;;;;;;;4.72;62.95;101362.06;1734288;80;21145;-39
2021/04/12 04:05:41;;;;;;;38.58;27.67;;;;;;;4.73;63.27;101362.47;1729331;80;21573;-38
2021/04/12 04:08:26;;;;;;;37.10;25.88;;;;;;;4.74;63.45;101364.23;1739677;80;21130;-37
2021/04/12 04:11:22;;;;;;;42.15;29.90;;;;;;;4.75;63.61;101360.67;1718627;82;21141;-41
2021/04/12 04:14:08;;;;;;;40.52;29.32;;;;;;;4.77;63.71;101368.98;1717263;82;21134;-37
2021/04/12 04:17:17;;;;;;;34.85;27.00;;;;;;;4.79;63.84;101368.97;1710637;82;21165;-40
2021/04/12 04:20:39;;;;;;;38.92;27.32;;;;;;;4.80;64.03;101360.13;1718154;82;21153;-40
2021/04/12 04:23:52;;;;;;;40.23;29.45;;;;;;;4.84;64.26;101359.17;1715655;82;21539;-40
2021/04/12 04:26:51;;;;;;;42.15;30.10;;;;;;;4.87;64.36;101361.74;1716274;82;21161;-36
2021/04/12 04:30:01;;;;;;;47.15;31.40;;;;;;;4.91;64.62;101358.57;1717790;82;21138;-38
2021/04/12 04:32:52;;;;;;;53.13;34.75;;;;;;;4.91;64.77;101356.83;1714363;82;21125;-41
2021/04/12 04:35:42;;;;;;;51.75;35.83;;;;;;;4.89;64.43;101356.41;1717319;82;21177;-39
2021/04/12 04:38:31;;;;;;;53.00;38.15;;;;;;;4.90;64.30;101355.06;1719920;82;21150;-39
2021/04/12 04:41:42;;;;;;;53.15;37.05;;;;;;;4.93;64.35;101356.31;1716648;82;21098;-40
2021/04/12 04:44:47;;;;;;;58.92;36.45;;;;;;;4.98;64.19;101351.80;1718858;82;21147;-48
2021/04/12 04:47:45;;;;;;;51.37;32.45;;;;;;;5.06;64.14;101346.80;1718304;82;21114;-41
2021/04/12 04:51:11;;;;;;;50.03;31.15;;;;;;;5.11;63.96;101342.28;1712315;82;21157;-39
2021/04/12 04:54:16;;;;;;;42.78;31.62;;;;;;;5.18;63.89;101347.85;1722257;82;21566;-41
2021/04/12 04:57:19;;;;;;;48.13;32.95;;;;;;;5.28;63.81;101343.23;1713782;82;21129;-38
2021/04/12 05:00:15;;;;;;;46.42;32.10;;;;;;;5.35;63.87;101345.70;1716445;82;21153;-40
2021/04/12 05:03:13;;;;;;;43.65;32.40;;;;;;;5.43;63.63;101342.88;1687191;82;21495;-40
2021/04/12 05:06:14;;;;;;;42.88;32.35;;;;;;;5.52;64.01;101333.41;1715473;82;21162;-41
2021/04/12 05:09:20;;;;;;;47.45;31.45;;;;;;;5.62;63.55;101338.02;1713631;82;21141;-40
2021/04/12 05:12:10;;;;;;;42.15;31.45;;;;;;;5.71;62.81;101340.88;1716399;82;21166;-41
2021/04/12 05:15:32;;;;;;;42.93;30.37;;;;;;;5.78;62.00;101327.92;1714067;82;21191;-41
2021/04/12 05:18:55;;;;;;;43.40;32.65;;;;;;;5.89;61.54;101331.61;1668407;84;21176;-41
2021/04/12 05:21:44;;;;;;;50.38;34.18;;;;;;;5.99;61.42;101322.55;1647438;85;21189;-39
2021/04/12 05:24:37;;;;;;;49.67;34.18;;;;;;;6.09;60.63;101321.39;1682880;84;21410;-40
2021/04/12 05:27:36;;;;;;;49.98;32.65;;;;;;;6.18;60.29;101327.78;1657402;85;21169;-39
2021/04/12 05:30:53;;;;;;;39.50;30.08;;;;;;;6.24;60.64;101317.00;1678895;84;21157;-41
2021/04/12 05:33:50;;;;;;;41.28;28.90;;;;;;;6.35;60.52;101325.11;1681954;84;21165;-41
2021/04/12 05:36:45;;;;;;;47.33;30.00;;;;;;;6.45;60.22;101315.56;1678541;84;21149;-39
2021/04/12 05:39:24;;;;;;;45.60;29.67;;;;;;;6.58;59.86;101324.03;1680376;84;21142;-39
2021/04/12 05:42:16;;;;;;;40.92;31.42;;;;;;;6.70;59.45;101324.11;1615807;87;21269;-40
2021/04/12 05:45:41;;;;;;;41.02;30.43;;;;;;;6.80;59.29;101323.39;1643851;85;21217;-41
2021/04/12 05:49:14;;;;;;;47.80;35.03;;;;;;;6.99;57.96;101304.70;1833131;76;26450;-39
2021/04/12 05:52:26;;;;;;;46.83;33.90;;;;;;;7.01;58.08;101309.50;1807959;77;21560;-38
2021/04/12 05:55:31;;;;;;;46.53;33.73;;;;;;;7.07;57.90;101311.09;1806008;77;21124;-36
2021/04/12 05:58:23;;;;;;;46.18;32.48;;;;;;;7.14;58.02;101303.36;1807385;77;21289;-41
2021/04/12 06:01:31;;;;;;;47.48;30.72;;;;;;;7.23;58.18;101303.52;1806930;77;21116;-42
2021/04/12 06:04:34;;;;;;;43.65;30.90;;;;;;;7.32;58.16;101297.92;1805077;77;21631;-40
2021/04/12 06:07:14;;;;;;;37.15;27.58;;;;;;;7.46;57.85;101295.70;1801448;77;21196;-42
2021/04/12 06:10:05;;;;;;;37.00;28.12;;;;;;;7.61;56.75;101298.75;1805194;77;21984;-43
2021/04/12 06:12:44;;;;;;;40.58;28.47;;;;;;;7.74;56.32;101292.13;1777943;78;21280;-42
2021/04/12 06:15:20;;;;;;;38.48;27.62;;;;;;;7.90;56.10;101293.79;1779566;79;21941;-40
2021/04/12 06:18:35;;;;;;;37.23;26.02;;;;;;;8.10;56.11;101292.62;1799604;78;23123;-41
2021/04/12 06:21:27;;;;;;;37.03;27.27;;;;;;;8.20;54.34;101291.84;1775993;79;21133;-42
2021/04/12 06:24:02;;;;;;;38.10;26.68;;;;;;;8.38;52.99;101285.86;1727789;81;21140;-39
2021/04/12 06:26:55;;;;;;;37.23;26.17;;;;;;;8.66;51.99;101268.44;1717000;83;21909;-41
2021/04/12 06:29:53;;;;;;;34.05;23.80;;;;;;;8.83;51.31;101269.12;1728600;81;21110;-40
2021/04/12 06:33:04;;;;;;;36.03;25.90;;;;;;;8.83;51.31;101269.12;1718963;81;21460;-40
2021/04/12 06:35:47;;;;;;;32.45;23.27;;;;;;;9.09;50.68;101258.78;1740928;81;21109;-40
2021/04/12 06:38:46;;;;;;;33.63;24.00;;;;;;;9.09;50.68;101258.78;1728646;81;21161;-40
2021/04/12 06:41:57;;;;;;;30.17;22.70;;;;;;;9.25;50.93;101259.05;1717741;81;21167;-40
2021/04/12 06:45:00;;;;;;;32.80;24.50;;;;;;;9.39;49.88;101257.61;1738457;81;21149;-41
2021/04/12 06:48:17;;;;;;;30.85;22.52;;;;;;;9.55;49.10;101232.09;1727742;81;21458;-40
2021/04/12 06:51:20;;;;;;;32.75;20.90;;;;;;;9.85;48.44;101249.00;1631710;86;21500;-41
2021/04/12 06:54:33;;;;;;;29.07;21.87;;;;;;;9.85;48.44;101249.00;1642828;86;21226;-41
2021/04/12 06:57:12;;;;;;;25.62;21.12;;;;;;;9.96;46.85;101238.28;1698531;83;21173;-40
2021/04/12 07:00:03;;;;;;;30.82;21.37;;;;;;;10.17;47.72;101231.59;1799667;78;23099;-40
2021/04/12 07:03:26;;;;;;;28.40;21.73;;;;;;;10.25;47.09;101231.25;1777416;79;21132;-61
2021/04/12 07:06:10;;;;;;;32.53;20.57;;;;;;;10.36;47.61;101228.53;1745856;81;21960;-40
2021/04/12 07:10:08;;;;;;;22.93;17.98;;;;;;;10.53;47.29;101221.55;1631796;85;21638;-39
2021/04/12 07:13:11;;;;;;;23.55;17.15;;;;;;;10.76;46.01;101209.34;1767500;79;24213;-41
2021/04/12 07:16:28;;;;;;;19.20;14.75;;;;;;;10.88;45.42;101218.54;1742179;80;21149;-43
2021/04/12 07:19:23;;;;;;;19.77;13.15;;;;;;;11.03;44.09;101208.45;1732823;80;21229;-41
2021/04/12 07:22:31;;;;;;;14.28;12.15;;;;;;;11.23;43.79;101206.14;1749995;80;21566;-42
2021/04/12 07:25:39;;;;;;;19.07;12.75;;;;;;;11.40;43.48;101211.12;1732052;80;21291;-43
2021/04/12 07:28:51;;;;;;;17.73;11.88;;;;;;;11.58;43.02;101207.50;1732560;80;21133;-43
2021/04/12 07:32:03;;;;;;;16.15;12.33;;;;;;;11.74;42.87;101208.91;1728002;80;21118;-45
2021/04/12 07:35:05;;;;;;;13.10;10.15;;;;;;;11.90;41.73;101206.35;1732176;80;21151;-40
2021/04/12 07:38:15;;;;;;;12.65;9.90;;;;;;;12.10;39.50;101202.63;1731284;80;21146;-41
2021/04/12 07:41:22;;;;;;;16.10;10.48;;;;;;;12.25;38.77;101191.58;1731354;80;21142;-40
2021/04/12 07:44:28;;;;;;;14.60;10.00;;;;;;;12.40;39.48;101185.39;1733763;80;21138;-40
2021/04/12 07:47:43;;;;;;;16.60;12.10;;;;;;;12.50;38.39;101173.23;1729708;80;21149;-40
2021/04/12 07:50:49;;;;;;;15.38;10.70;;;;;;;12.60;37.04;101173.59;1737290;80;21176;-42
2021/04/12 07:53:41;;;;;;;14.70;10.38;;;;;;;12.68;36.39;101167.32;1735397;80;21153;-43
2021/04/12 07:56:50;;;;;;;15.98;10.93;;;;;;;12.76;35.89;101166.41;1628647;86;21679;-45
2021/04/12 07:59:53;;;;;;;16.15;10.70;;;;;;;12.81;36.53;101171.50;1633262;86;22017;-41
2021/04/12 08:03:11;;;;;;;11.95;9.03;;;;;;;12.87;36.91;101161.77;1629164;86;21192;-40
2021/04/12 08:08:47;;;;;;;10.40;7.75;;;;;;;13.01;35.30;101166.34;1763672;77;48902;-41
2021/04/12 08:12:14;;;;;;;9.50;7.35;;;;;;;12.98;36.83;101166.53;1738677;80;21182;-39
2021/04/12 08:15:20;;;;;;;8.28;6.80;;;;;;;13.03;37.03;101170.25;1753991;80;21152;-40
2021/04/12 08:18:00;;;;;;;10.55;7.80;;;;;;;13.07;37.08;101174.01;1753304;80;21165;-41
2021/04/12 08:20:56;;;;;;;14.43;9.23;;;;;;;13.12;37.36;101178.62;1753482;80;22000;-42
2021/04/12 08:24:00;;;;;;;13.90;8.60;;;;;;;13.15;37.76;101181.59;1753749;80;21629;-40
2021/04/12 08:27:36;;;;;;;10.63;7.87;;;;;;;13.18;38.04;101178.28;1749418;80;21153;-42
2021/04/12 08:30:36;;;;;;;8.78;7.60;;;;;;;13.24;37.74;101180.21;1750194;80;21578;-42
2021/04/12 08:33:34;;;;;;;9.05;7.28;;;;;;;13.31;37.61;101169.56;1658426;85;21662;-41
2021/04/12 08:36:41;;;;;;;10.75;7.75;;;;;;;13.36;37.71;101158.09;1658388;85;21197;-41
2021/04/12 08:40:00;;;;;;;9.30;7.05;;;;;;;13.42;37.97;101159.91;1659209;85;21672;-40
2021/04/12 08:43:08;;;;;;;9.93;6.60;;;;;;;13.50;36.83;101142.03;1836174;76;28381;-42
2021/04/12 08:46:24;;;;;;;8.75;6.35;;;;;;;13.48;36.53;101144.42;1810135;77;21558;-41
2021/04/12 08:49:14;;;;;;;8.30;5.10;;;;;;;13.49;37.06;101142.15;1813445;77;21596;-42
2021/04/12 08:52:21;;;;;;;10.75;5.25;;;;;;;13.51;37.01;101143.78;1810542;77;21548;-43
2021/04/12 08:55:27;;;;;;;8.48;5.22;;;;;;;13.51;35.65;101133.55;1691805;83;21178;-41
2021/04/12 08:58:39;;;;;;;11.18;6.30;;;;;;;13.50;36.38;101123.28;1687968;83;21179;-42
2021/04/12 09:01:43;;;;;;;;;;;;;;;13.52;37.04;101121.37;1690990;83;21287;-42
2021/04/12 09:04:51;;;;;;;15.00;10.88;;;;;;;13.56;37.86;101114.04;1687524;83;20501;-42
2021/04/12 09:07:30;;;;;;;10.38;7.28;;;;;;;13.58;39.09;101123.70;1685530;83;21308;-41
2021/04/12 09:10:07;;;;;;;8.55;6.47;;;;;;;13.62;40.72;101122.54;1687204;83;21559;-42
2021/04/12 09:13:14;;;;;;;8.28;5.85;;;;;;;13.67;41.14;101114.71;1685050;83;21224;-43
2021/04/12 09:16:19;;;;;;;10.10;7.17;;;;;;;13.79;41.61;101108.11;1805136;78;23048;-39
2021/04/12 09:19:07;;;;;;;10.88;7.42;;;;;;;13.80;41.80;101104.46;1776473;79;21582;-40
2021/04/12 09:22:20;;;;;;;14.25;8.13;;;;;;;13.83;41.41;101100.73;1721128;81;21564;-42
2021/04/12 09:25:34;;;;;;;9.45;7.58;;;;;;;13.86;41.62;101093.86;1721621;81;21138;-41
2021/04/12 09:28:38;;;;;;;15.38;7.42;;;;;;;13.88;42.69;101086.55;1718693;82;21716;-41
2021/04/12 09:31:52;;;;;;;13.48;7.70;;;;;;;13.91;43.60;101085.05;1721754;82;21160;-41
2021/04/12 09:34:55;;;;;;;12.07;8.53;;;;;;;13.89;44.12;101077.58;1727783;82;21307;-42
2021/04/12 09:37:53;;;;;;;12.75;7.92;;;;;;;13.80;43.59;101076.31;1663899;84;21191;-42
2021/04/12 09:41:06;;;;;;;12.70;9.65;;;;;;;13.75;44.06;101081.11;1796718;78;23147;-42
2021/04/12 09:43:59;;;;;;;13.15;8.80;;;;;;;13.69;43.50;101079.30;1779123;79;21999;-41
2021/04/12 09:46:53;;;;;;;11.20;7.00;;;;;;;13.62;44.00;101071.63;1784406;79;21561;-41
2021/04/12 09:50:01;;;;;;;12.68;7.72;;;;;;;13.62;45.30;101073.45;1777728;79;21171;-41
2021/04/12 09:52:53;;;;;;;12.05;8.83;;;;;;;13.66;45.57;101072.32;1784832;79;21137;-42
2021/04/12 09:55:54;;;;;;;16.30;9.75;;;;;;;13.72;45.62;101057.18;1740954;80;21126;-42
2021/04/12 09:59:00;;;;;;;9.57;7.80;;;;;;;13.78;45.09;101058.61;1744471;81;21138;-41
2021/04/12 10:01:46;;;;;;;10.43;8.18;;;;;;;13.84;44.84;101055.56;1723204;82;21568;-42
2021/04/12 10:04:52;;;;;;;11.43;8.83;;;;;;;13.89;44.72;101049.43;1716774;82;21390;-41
2021/04/12 10:07:41;;;;;;;11.22;8.25;;;;;;;13.95;43.49;101053.53;1720662;82;21197;-42
2021/04/12 10:10:24;;;;;;;11.15;7.53;;;;;;;13.98;42.44;101053.33;1719437;82;21142;-40
2021/04/12 10:13:33;;;;;;;13.48;8.38;;;;;;;13.98;42.60;101045.28;1644395;85;21169;-41
2021/04/12 10:16:15;;;;;;;11.22;7.10;;;;;;;14.00;42.81;101051.42;1642606;85;21209;-43
2021/04/12 10:19:08;;;;;;;8.55;7.03;;;;;;;14.03;44.01;101053.89;1663991;85;21218;-44
2021/04/12 10:21:52;;;;;;;8.85;7.03;;;;;;;14.06;44.45;101057.72;1644668;85;21169;-41
2021/04/12 10:24:47;;;;;;;11.25;7.45;;;;;;;14.07;43.71;101058.97;1628125;86;21184;-42
2021/04/12 10:27:29;;;;;;;9.80;7.37;;;;;;;14.07;44.28;101072.38;1629517;85;21202;-40
2021/04/12 10:30:14;;;;;;;10.82;8.03;;;;;;;14.09;44.74;101068.75;1643638;85;21208;-41
2021/04/12 10:32:53;;;;;;;12.00;9.08;;;;;;;14.09;45.00;101066.93;1765984;79;22855;-40
2021/04/12 10:35:35;;;;;;;12.50;8.35;;;;;;;14.03;46.01;101074.86;1736633;80;22182;-43
2021/04/12 10:38:23;;;;;;;11.53;8.48;;;;;;;14.05;46.21;101075.62;1738172;80;21173;-38
2021/04/12 10:41:05;;;;;;;9.93;7.53;;;;;;;14.05;46.61;101072.95;1735919;80;21122;-44
2021/04/12 10:43:43;;;;;;;12.68;8.70;;;;;;;14.05;46.90;101071.61;1737352;80;21129;-46
2021/04/12 10:46:22;;;;;;;11.57;9.18;;;;;;;14.04;46.67;101077.94;1735112;80;21562;-45
2021/04/12 10:49:25;;;;;;;15.08;10.28;;;;;;;13.98;46.60;101072.09;1735577;80;21649;-44
2021/04/12 10:52:16;;;;;;;12.35;8.25;;;;;;;13.92;47.83;101072.02;1733143;80;21154;-44
2021/04/12 10:55:20;;;;;;;13.10;10.70;;;;;;;13.86;48.06;101072.41;1783976;78;28831;-45
2021/04/12 10:58:32;;;;;;;13.38;8.65;;;;;;;13.79;48.99;101077.77;1772544;79;21295;-50
2021/04/12 11:01:08;;;;;;;10.32;8.98;;;;;;;13.78;50.47;101085.41;1718862;81;21468;-41
2021/04/12 11:03:49;;;;;;;13.48;9.75;;;;;;;13.67;51.33;101085.23;1689370;81;21156;-44
2021/04/12 11:06:50;;;;;;;13.43;8.68;;;;;;;13.57;52.13;101094.31;1695659;82;21173;-41
2021/04/12 11:09:33;;;;;;;11.75;9.18;;;;;;;13.46;52.59;101096.80;1718979;82;21157;-41
2021/04/12 11:12:44;;;;;;;11.53;10.13;;;;;;;13.35;53.80;101095.60;1720564;82;21157;-43
2021/04/12 11:15:31;;;;;;;11.97;10.00;;;;;;;13.25;54.54;101090.38;1718351;82;21159;-42
2021/04/12 11:18:30;;;;;;;14.60;10.10;;;;;;;13.11;55.60;101089.88;1716271;81;21153;-45
2021/04/12 11:21:07;;;;;;;14.33;11.30;;;;;;;12.98;56.55;101092.91;1737743;81;21154;-44
2021/04/12 11:23:42;;;;;;;12.80;10.68;;;;;;;12.87;57.33;101088.16;1743473;81;21653;-42
2021/04/12 11:26:21;;;;;;;12.33;10.15;;;;;;;12.82;58.00;101085.38;1717032;81;21121;-45
2021/04/12 11:28:56;;;;;;;17.02;14.23;;;;;;;12.77;58.47;101080.29;1737591;81;21149;-43
2021/04/12 11:32:04;;;;;;;18.30;12.85;;;;;;;12.72;59.27;101079.70;1743185;81;21154;-43
2021/04/12 11:35:06;;;;;;;18.52;12.35;;;;;;;12.66;59.73;101076.91;1741868;81;21126;-40
2021/04/12 11:37:48;;;;;;;12.78;11.08;;;;;;;12.66;60.04;101069.36;1718358;81;21161;-41
2021/04/12 11:40:27;;;;;;;12.90;11.40;;;;;;;12.63;59.76;101065.05;1719632;81;21137;-42
2021/04/12 11:43:00;;;;;;;15.40;11.93;;;;;;;12.58;59.71;101067.13;1722819;81;21157;-42
2021/04/12 11:45:37;;;;;;;14.13;11.33;;;;;;;12.54;59.97;101066.42;1712553;82;21150;-43
2021/04/12 11:48:21;;;;;;;13.50;12.07;;;;;;;12.55;59.76;101061.97;1744376;81;21138;-42
2021/04/12 11:51:07;;;;;;;13.45;11.08;;;;;;;12.54;59.76;101065.09;1688975;82;21153;-40
2021/04/12 11:53:56;;;;;;;11.90;10.58;;;;;;;12.53;59.93;101055.84;1707472;82;21618;-41
2021/04/12 11:56:49;;;;;;;15.13;11.33;;;;;;;12.46;59.74;101051.78;1711602;82;21193;-42
2021/04/12 11:59:40;;;;;;;15.25;12.03;;;;;;;12.33;59.46;101047.61;1727392;82;21422;-42
2021/04/12 12:02:52;;;;;;;14.15;11.83;;;;;;;12.23;59.66;101048.60;1714440;82;21145;-44
2021/04/12 12:05:39;;;;;;;11.73;9.95;;;;;;;12.15;59.47;101041.50;1740062;82;21613;-44
2021/04/12 12:08:24;;;;;;;14.35;10.70;;;;;;;12.09;59.66;101038.67;1713247;83;21145;-41
2021/04/12 12:11:05;;;;;;;19.20;13.15;;;;;;;12.07;59.78;101034.36;1738881;82;21169;-44
2021/04/12 12:13:56;;;;;;;16.42;11.57;;;;;;;12.02;59.68;101034.64;1707577;83;21586;-40
2021/04/12 12:16:42;;;;;;;14.18;11.43;;;;;;;11.95;59.86;101035.92;1708583;82;21149;-44
2021/04/12 12:19:57;;;;;;;13.85;11.63;;;;;;;11.93;59.97;101026.27;1717989;82;21211;-41
2021/04/12 12:22:59;;;;;;;14.53;11.33;;;;;;;11.95;60.24;101026.57;1732138;82;21153;-42
2021/04/12 12:25:44;;;;;;;13.90;11.70;;;;;;;11.98;60.25;101021.05;1719524;82;21175;-41
2021/04/12 12:28:58;;;;;;;13.78;11.45;;;;;;;12.03;60.44;101025.66;1719368;82;21142;-41
2021/04/12 12:31:31;;;;;;;15.75;12.13;;;;;;;12.09;60.57;101021.77;1716928;82;21201;-40
2021/04/12 12:34:20;;;;;;;12.37;11.03;;;;;;;12.13;60.26;101019.33;1717691;82;21153;-42
2021/04/12 12:37:36;;;;;;;13.50;11.93;;;;;;;12.12;59.94;101022.96;1738191;82;21570;-41
2021/04/12 12:40:14;;;;;;;17.30;12.13;;;;;;;12.16;60.26;101023.16;1797808;78;23099;-41
2021/04/12 12:42:46;;;;;;;14.58;11.18;;;;;;;12.12;59.93;101025.63;1775227;79;21134;-40
2021/04/12 12:45:26;;;;;;;16.90;12.93;;;;;;;12.11;59.26;101018.55;1740789;81;21149;-43
2021/04/12 12:47:57;;;;;;;14.68;11.83;;;;;;;12.10;58.99;101019.51;1742466;81;21145;-40
2021/04/12 12:50:34;;;;;;;16.70;12.07;;;;;;;12.06;59.01;101017.46;1698090;82;21193;-43
2021/04/12 12:53:14;;;;;;;15.08;12.68;;;;;;;12.04;59.06;101015.82;1719815;81;21137;-41
2021/04/12 12:56:08;;;;;;;18.82;12.93;;;;;;;12.03;59.30;101017.64;1736768;81;21152;-40
2021/04/12 12:58:40;;;;;;;19.25;12.40;;;;;;;12.07;59.65;101022.33;1723660;81;21157;-45
2021/04/12 13:01:09;;;;;;;16.42;12.88;;;;;;;12.11;59.72;101033.25;1672130;82;21594;-42
2021/04/12 13:03:42;;;;;;;15.05;12.60;;;;;;;12.15;60.11;101032.63;1719070;82;21173;-43
2021/04/12 13:06:27;;;;;;;13.25;10.55;;;;;;;12.19;60.52;101029.66;1717405;81;21177;-41
2021/04/12 13:08:58;;;;;;;13.10;11.68;;;;;;;12.23;59.99;101031.22;1720436;81;21136;-43
2021/04/12 13:11:42;;;;;;;16.42;11.15;;;;;;;12.27;59.65;101028.77;1685013;83;21175;-44
2021/04/12 13:14:23;;;;;;;14.03;11.50;;;;;;;12.29;59.52;101029.52;1716978;81;21161;-44
2021/04/12 13:16:53;;;;;;;16.95;12.25;;;;;;;12.32;58.95;101028.03;1676103;83;21158;-41
2021/04/12 13:19:21;;;;;;;15.20;12.10;;;;;;;12.32;58.49;101021.80;1721396;81;21163;-41
2021/04/12 13:21:53;;;;;;;17.07;15.03;;;;;;;12.31;58.19;101020.09;1717587;81;21165;-40
2021/04/12 13:27:11;;;;;;;16.15;12.93;;;;;;;12.25;57.63;101018.64;1818635;77;23113;-40
2021/04/12 13:29:50;;;;;;;17.32;13.65;;;;;;;12.17;57.33;101018.22;1814005;77;21142;-40
2021/04/12 13:32:26;;;;;;;19.52;13.30;;;;;;;12.15;57.58;101014.77;1810231;77;21141;-42
2021/04/12 13:35:09;;;;;;;18.87;14.25;;;;;;;12.17;57.77;101016.87;1819233;77;21158;-41